sensor_id;sensor_type;location;lat;lon;timestamp;temperature;humidity
21259;DHT22;10787;53.364;-1.480;2024-03-22T00:00:43;10.70;99.90
21259;DHT22;10787;53.364;-1.480;2024-03-22T00:03:28;10.70;99.90
21259;DHT22;10787;53.364;-1.480;2024-03-22T00:06:13;10.70;99.90
21259;DHT22;10787;53.364;-1.480;2024-03-22T00:08:58;10.70;99.90
21259;DHT22;10787;53.364;-1.480;2024-03-22T00:11:43;10.60;99.90
21259;DHT22;10787;53.364;-1.480;2024-03-22T00:14:27;10.60;99.90
21259;DHT22;10787;53.364;-1.480;2024-03-22T00:17:12;10.60;99.90
21259;DHT22;10787;53.364;-1.480;2024-03-22T00:20:00;10.60;99.90
21259;DHT22;10787;53.364;-1.480;2024-03-22T00:22:44;10.60;99.90
21259;DHT22;10787;53.364;-1.480;2024-03-22T00:25:28;10.60;99.90
21259;DHT22;10787;53.364;-1.480;2024-03-22T00:28:13;10.60;99.90
21259;DHT22;10787;53.364;-1.480;2024-03-22T00:30:56;10.60;99.90
21259;DHT22;10787;53.364;-1.480;2024-03-22T00:33:40;10.60;99.90
21259;DHT22;10787;53.364;-1.480;2024-03-22T00:36:25;10.60;99.90
21259;DHT22;10787;53.364;-1.480;2024-03-22T00:39:09;10.50;99.90
21259;DHT22;10787;53.364;-1.480;2024-03-22T00:41:53;10.50;99.90
21259;DHT22;10787;53.364;-1.480;2024-03-22T00:44:38;10.50;99.90
21259;DHT22;10787;53.364;-1.480;2024-03-22T00:47:22;10.50;99.90
21259;DHT22;10787;53.364;-1.480;2024-03-22T00:50:07;10.50;99.90
21259;DHT22;10787;53.364;-1.480;2024-03-22T00:52:51;10.50;99.90
21259;DHT22;10787;53.364;-1.480;2024-03-22T00:55:36;10.50;99.90
21259;DHT22;10787;53.364;-1.480;2024-03-22T00:58:27;10.50;99.90
21259;DHT22;10787;53.364;-1.480;2024-03-22T01:01:11;10.50;99.90
21259;DHT22;10787;53.364;-1.480;2024-03-22T01:03:55;10.50;99.90
21259;DHT22;10787;53.364;-1.480;2024-03-22T01:06:39;10.50;99.90
21259;DHT22;10787;53.364;-1.480;2024-03-22T01:09:24;10.50;99.90
21259;DHT22;10787;53.364;-1.480;2024-03-22T01:12:08;10.50;99.90
21259;DHT22;10787;53.364;-1.480;2024-03-22T01:14:53;10.50;99.90
21259;DHT22;10787;53.364;-1.480;2024-03-22T01:17:37;10.50;99.90
21259;DHT22;10787;53.364;-1.480;2024-03-22T01:20:22;10.50;99.90
21259;DHT22;10787;53.364;-1.480;2024-03-22T01:23:06;10.50;99.90
21259;DHT22;10787;53.364;-1.480;2024-03-22T01:25:50;10.50;99.90
21259;DHT22;10787;53.364;-1.480;2024-03-22T01:28:35;10.50;99.90
21259;DHT22;10787;53.364;-1.480;2024-03-22T01:31:19;10.50;99.90
21259;DHT22;10787;53.364;-1.480;2024-03-22T01:34:04;10.50;99.90
21259;DHT22;10787;53.364;-1.480;2024-03-22T01:36:49;10.50;99.90
21259;DHT22;10787;53.364;-1.480;2024-03-22T01:39:34;10.40;99.90
21259;DHT22;10787;53.364;-1.480;2024-03-22T01:42:18;10.40;99.90
21259;DHT22;10787;53.364;-1.480;2024-03-22T01:45:02;10.40;99.90
21259;DHT22;10787;53.364;-1.480;2024-03-22T01:47:47;10.40;99.90
21259;DHT22;10787;53.364;-1.480;2024-03-22T01:50:31;10.40;99.90
21259;DHT22;10787;53.364;-1.480;2024-03-22T01:53:16;10.40;99.90
21259;DHT22;10787;53.364;-1.480;2024-03-22T01:56:01;10.40;99.90
21259;DHT22;10787;53.364;-1.480;2024-03-22T01:58:46;10.30;99.90
21259;DHT22;10787;53.364;-1.480;2024-03-22T02:01:31;10.30;99.90
21259;DHT22;10787;53.364;-1.480;2024-03-22T02:04:15;10.30;99.90
21259;DHT22;10787;53.364;-1.480;2024-03-22T02:07:08;10.30;99.90
21259;DHT22;10787;53.364;-1.480;2024-03-22T02:09:55;10.30;99.90
21259;DHT22;10787;53.364;-1.480;2024-03-22T02:12:41;10.30;99.90
21259;DHT22;10787;53.364;-1.480;2024-03-22T02:15:26;10.30;99.90
21259;DHT22;10787;53.364;-1.480;2024-03-22T02:18:10;10.30;99.90
21259;DHT22;10787;53.364;-1.480;2024-03-22T02:20:56;10.20;99.90
21259;DHT22;10787;53.364;-1.480;2024-03-22T02:23:40;10.20;99.90
21259;DHT22;10787;53.364;-1.480;2024-03-22T02:26:25;10.10;99.90
21259;DHT22;10787;53.364;-1.480;2024-03-22T02:29:10;10.10;99.90
21259;DHT22;10787;53.364;-1.480;2024-03-22T02:31:53;10.10;99.90
21259;DHT22;10787;53.364;-1.480;2024-03-22T02:34:38;10.10;99.90
21259;DHT22;10787;53.364;-1.480;2024-03-22T02:37:22;10.10;99.90
21259;DHT22;10787;53.364;-1.480;2024-03-22T02:40:07;10.10;99.90
21259;DHT22;10787;53.364;-1.480;2024-03-22T02:42:51;10.00;99.90
21259;DHT22;10787;53.364;-1.480;2024-03-22T02:45:35;9.90;99.90
21259;DHT22;10787;53.364;-1.480;2024-03-22T02:48:19;9.90;99.90
21259;DHT22;10787;53.364;-1.480;2024-03-22T02:51:04;9.90;99.90
21259;DHT22;10787;53.364;-1.480;2024-03-22T02:53:48;9.80;99.90
21259;DHT22;10787;53.364;-1.480;2024-03-22T02:56:32;9.70;99.90
21259;DHT22;10787;53.364;-1.480;2024-03-22T02:59:17;9.70;99.90
21259;DHT22;10787;53.364;-1.480;2024-03-22T03:02:04;9.60;99.90
21259;DHT22;10787;53.364;-1.480;2024-03-22T03:04:49;9.60;99.90
21259;DHT22;10787;53.364;-1.480;2024-03-22T03:07:34;9.50;99.90
21259;DHT22;10787;53.364;-1.480;2024-03-22T03:10:18;9.50;99.90
21259;DHT22;10787;53.364;-1.480;2024-03-22T03:13:03;9.40;99.90
21259;DHT22;10787;53.364;-1.480;2024-03-22T03:15:47;9.40;99.90
21259;DHT22;10787;53.364;-1.480;2024-03-22T03:18:31;9.40;99.90
21259;DHT22;10787;53.364;-1.480;2024-03-22T03:21:15;9.30;99.90
21259;DHT22;10787;53.364;-1.480;2024-03-22T03:24:00;9.30;99.90
21259;DHT22;10787;53.364;-1.480;2024-03-22T03:26:44;9.20;99.90
21259;DHT22;10787;53.364;-1.480;2024-03-22T03:29:28;9.20;99.90
21259;DHT22;10787;53.364;-1.480;2024-03-22T03:32:12;9.10;99.90
21259;DHT22;10787;53.364;-1.480;2024-03-22T03:34:56;9.10;99.90
21259;DHT22;10787;53.364;-1.480;2024-03-22T03:37:41;9.10;99.90
21259;DHT22;10787;53.364;-1.480;2024-03-22T03:40:25;9.10;99.90
21259;DHT22;10787;53.364;-1.480;2024-03-22T03:43:11;9.00;99.90
21259;DHT22;10787;53.364;-1.480;2024-03-22T03:45:55;9.00;99.90
21259;DHT22;10787;53.364;-1.480;2024-03-22T03:48:43;9.00;99.90
21259;DHT22;10787;53.364;-1.480;2024-03-22T03:51:27;9.00;99.90
21259;DHT22;10787;53.364;-1.480;2024-03-22T03:54:11;9.00;99.90
21259;DHT22;10787;53.364;-1.480;2024-03-22T03:56:56;9.00;99.90
21259;DHT22;10787;53.364;-1.480;2024-03-22T03:59:40;9.00;99.90
21259;DHT22;10787;53.364;-1.480;2024-03-22T04:02:24;9.00;99.90
21259;DHT22;10787;53.364;-1.480;2024-03-22T04:05:08;9.00;99.90
21259;DHT22;10787;53.364;-1.480;2024-03-22T04:07:52;9.00;99.90
21259;DHT22;10787;53.364;-1.480;2024-03-22T04:10:37;9.00;99.90
21259;DHT22;10787;53.364;-1.480;2024-03-22T04:13:22;9.00;99.90
21259;DHT22;10787;53.364;-1.480;2024-03-22T04:16:06;9.10;99.90
21259;DHT22;10787;53.364;-1.480;2024-03-22T04:18:51;9.10;99.90
21259;DHT22;10787;53.364;-1.480;2024-03-22T04:21:36;9.10;99.90
21259;DHT22;10787;53.364;-1.480;2024-03-22T04:24:20;9.20;99.90
21259;DHT22;10787;53.364;-1.480;2024-03-22T04:27:04;9.20;99.90
21259;DHT22;10787;53.364;-1.480;2024-03-22T04:29:48;9.20;99.90
21259;DHT22;10787;53.364;-1.480;2024-03-22T04:32:32;9.20;99.90
21259;DHT22;10787;53.364;-1.480;2024-03-22T04:35:17;9.20;99.90
21259;DHT22;10787;53.364;-1.480;2024-03-22T04:38:03;9.20;99.90
21259;DHT22;10787;53.364;-1.480;2024-03-22T04:40:47;9.20;99.90
21259;DHT22;10787;53.364;-1.480;2024-03-22T04:43:32;9.20;99.90
21259;DHT22;10787;53.364;-1.480;2024-03-22T04:46:16;9.20;99.90
21259;DHT22;10787;53.364;-1.480;2024-03-22T04:49:00;9.20;99.90
21259;DHT22;10787;53.364;-1.480;2024-03-22T04:51:44;9.20;99.90
21259;DHT22;10787;53.364;-1.480;2024-03-22T04:54:28;9.20;99.90
21259;DHT22;10787;53.364;-1.480;2024-03-22T04:57:12;9.10;99.90
21259;DHT22;10787;53.364;-1.480;2024-03-22T04:59:56;9.10;99.90
21259;DHT22;10787;53.364;-1.480;2024-03-22T05:02:40;9.10;99.90
21259;DHT22;10787;53.364;-1.480;2024-03-22T05:05:24;9.10;99.90
21259;DHT22;10787;53.364;-1.480;2024-03-22T05:08:09;9.10;99.90
21259;DHT22;10787;53.364;-1.480;2024-03-22T05:10:54;9.00;99.90
21259;DHT22;10787;53.364;-1.480;2024-03-22T05:13:38;9.00;99.90
21259;DHT22;10787;53.364;-1.480;2024-03-22T05:16:24;9.00;99.90
21259;DHT22;10787;53.364;-1.480;2024-03-22T05:19:10;8.90;99.90
21259;DHT22;10787;53.364;-1.480;2024-03-22T05:21:55;8.90;99.90
21259;DHT22;10787;53.364;-1.480;2024-03-22T05:24:39;8.90;99.90
21259;DHT22;10787;53.364;-1.480;2024-03-22T05:27:24;8.80;99.90
21259;DHT22;10787;53.364;-1.480;2024-03-22T05:30:12;8.80;99.90
21259;DHT22;10787;53.364;-1.480;2024-03-22T05:33:00;8.80;99.90
21259;DHT22;10787;53.364;-1.480;2024-03-22T05:35:44;8.80;99.90
21259;DHT22;10787;53.364;-1.480;2024-03-22T05:38:28;8.70;99.90
21259;DHT22;10787;53.364;-1.480;2024-03-22T05:41:13;8.80;99.90
21259;DHT22;10787;53.364;-1.480;2024-03-22T05:43:57;8.80;99.90
21259;DHT22;10787;53.364;-1.480;2024-03-22T05:46:41;8.80;99.90
21259;DHT22;10787;53.364;-1.480;2024-03-22T05:49:25;8.70;99.90
21259;DHT22;10787;53.364;-1.480;2024-03-22T05:52:10;8.70;99.90
21259;DHT22;10787;53.364;-1.480;2024-03-22T05:54:54;8.70;99.90
21259;DHT22;10787;53.364;-1.480;2024-03-22T05:57:38;8.70;99.90
21259;DHT22;10787;53.364;-1.480;2024-03-22T06:00:22;8.70;99.90
21259;DHT22;10787;53.364;-1.480;2024-03-22T06:03:06;8.70;99.90
21259;DHT22;10787;53.364;-1.480;2024-03-22T06:05:51;8.80;99.90
21259;DHT22;10787;53.364;-1.480;2024-03-22T06:08:39;8.80;99.90
21259;DHT22;10787;53.364;-1.480;2024-03-22T06:11:25;8.90;99.90
21259;DHT22;10787;53.364;-1.480;2024-03-22T06:14:10;8.90;99.90
21259;DHT22;10787;53.364;-1.480;2024-03-22T06:16:54;8.90;99.90
21259;DHT22;10787;53.364;-1.480;2024-03-22T06:19:40;8.80;99.90
21259;DHT22;10787;53.364;-1.480;2024-03-22T06:22:24;8.90;99.90
21259;DHT22;10787;53.364;-1.480;2024-03-22T06:25:08;8.80;99.90
21259;DHT22;10787;53.364;-1.480;2024-03-22T06:27:53;8.80;99.90
21259;DHT22;10787;53.364;-1.480;2024-03-22T06:30:37;8.90;99.90
21259;DHT22;10787;53.364;-1.480;2024-03-22T06:33:22;9.00;99.90
21259;DHT22;10787;53.364;-1.480;2024-03-22T06:36:06;9.10;99.90
21259;DHT22;10787;53.364;-1.480;2024-03-22T06:38:50;9.20;99.90
21259;DHT22;10787;53.364;-1.480;2024-03-22T06:41:35;9.20;99.90
21259;DHT22;10787;53.364;-1.480;2024-03-22T06:44:19;9.20;99.90
21259;DHT22;10787;53.364;-1.480;2024-03-22T06:47:03;9.10;99.90
21259;DHT22;10787;53.364;-1.480;2024-03-22T06:49:47;9.10;99.90
21259;DHT22;10787;53.364;-1.480;2024-03-22T06:52:31;9.00;99.90
21259;DHT22;10787;53.364;-1.480;2024-03-22T06:55:15;9.00;99.90
21259;DHT22;10787;53.364;-1.480;2024-03-22T06:58:00;8.90;99.90
21259;DHT22;10787;53.364;-1.480;2024-03-22T07:00:44;8.90;99.90
21259;DHT22;10787;53.364;-1.480;2024-03-22T07:03:29;8.80;99.90
21259;DHT22;10787;53.364;-1.480;2024-03-22T07:06:14;8.80;99.90
21259;DHT22;10787;53.364;-1.480;2024-03-22T07:08:59;8.80;99.90
21259;DHT22;10787;53.364;-1.480;2024-03-22T07:11:43;8.80;99.90
21259;DHT22;10787;53.364;-1.480;2024-03-22T07:14:27;8.80;99.90
21259;DHT22;10787;53.364;-1.480;2024-03-22T07:17:14;8.80;99.90
21259;DHT22;10787;53.364;-1.480;2024-03-22T07:19:59;8.80;99.90
21259;DHT22;10787;53.364;-1.480;2024-03-22T07:22:44;8.80;99.90
21259;DHT22;10787;53.364;-1.480;2024-03-22T07:25:28;8.80;99.90
21259;DHT22;10787;53.364;-1.480;2024-03-22T07:28:15;8.80;99.90
21259;DHT22;10787;53.364;-1.480;2024-03-22T07:31:00;8.90;99.90
21259;DHT22;10787;53.364;-1.480;2024-03-22T07:33:44;8.90;99.90
21259;DHT22;10787;53.364;-1.480;2024-03-22T07:36:30;8.80;99.90
21259;DHT22;10787;53.364;-1.480;2024-03-22T07:39:15;8.80;99.90
21259;DHT22;10787;53.364;-1.480;2024-03-22T07:41:59;8.90;99.90
21259;DHT22;10787;53.364;-1.480;2024-03-22T07:44:43;8.90;99.90
21259;DHT22;10787;53.364;-1.480;2024-03-22T07:47:28;8.90;99.90
21259;DHT22;10787;53.364;-1.480;2024-03-22T07:50:13;9.00;99.90
21259;DHT22;10787;53.364;-1.480;2024-03-22T07:52:58;9.10;99.90
21259;DHT22;10787;53.364;-1.480;2024-03-22T07:55:42;9.10;99.90
21259;DHT22;10787;53.364;-1.480;2024-03-22T07:58:26;9.20;99.90
21259;DHT22;10787;53.364;-1.480;2024-03-22T08:01:10;9.20;99.90
21259;DHT22;10787;53.364;-1.480;2024-03-22T08:03:54;9.20;99.90
21259;DHT22;10787;53.364;-1.480;2024-03-22T08:06:38;9.20;99.90
21259;DHT22;10787;53.364;-1.480;2024-03-22T08:09:22;9.20;99.90
21259;DHT22;10787;53.364;-1.480;2024-03-22T08:12:07;9.30;99.90
21259;DHT22;10787;53.364;-1.480;2024-03-22T08:14:51;9.50;99.90
21259;DHT22;10787;53.364;-1.480;2024-03-22T08:17:35;9.50;99.90
21259;DHT22;10787;53.364;-1.480;2024-03-22T08:20:19;9.50;99.90
21259;DHT22;10787;53.364;-1.480;2024-03-22T08:23:03;9.50;99.90
21259;DHT22;10787;53.364;-1.480;2024-03-22T08:25:47;9.60;99.90
21259;DHT22;10787;53.364;-1.480;2024-03-22T08:28:32;9.60;99.90
21259;DHT22;10787;53.364;-1.480;2024-03-22T08:31:16;9.50;99.90
21259;DHT22;10787;53.364;-1.480;2024-03-22T08:34:01;9.50;99.90
21259;DHT22;10787;53.364;-1.480;2024-03-22T08:36:47;9.40;99.90
21259;DHT22;10787;53.364;-1.480;2024-03-22T08:39:31;9.30;99.90
21259;DHT22;10787;53.364;-1.480;2024-03-22T08:42:17;9.30;99.90
21259;DHT22;10787;53.364;-1.480;2024-03-22T08:45:01;9.30;99.90
21259;DHT22;10787;53.364;-1.480;2024-03-22T08:47:45;9.30;99.90
21259;DHT22;10787;53.364;-1.480;2024-03-22T08:50:32;9.30;99.90
21259;DHT22;10787;53.364;-1.480;2024-03-22T08:53:16;9.40;99.90
21259;DHT22;10787;53.364;-1.480;2024-03-22T08:56:01;9.50;99.90
21259;DHT22;10787;53.364;-1.480;2024-03-22T08:58:45;9.70;99.90
21259;DHT22;10787;53.364;-1.480;2024-03-22T09:01:29;9.80;99.90
21259;DHT22;10787;53.364;-1.480;2024-03-22T09:04:13;9.90;99.90
21259;DHT22;10787;53.364;-1.480;2024-03-22T09:06:59;10.00;99.90
21259;DHT22;10787;53.364;-1.480;2024-03-22T09:09:43;10.10;99.90
21259;DHT22;10787;53.364;-1.480;2024-03-22T09:12:27;10.20;99.90
21259;DHT22;10787;53.364;-1.480;2024-03-22T09:15:11;10.20;99.90
21259;DHT22;10787;53.364;-1.480;2024-03-22T09:17:56;10.10;99.90
21259;DHT22;10787;53.364;-1.480;2024-03-22T09:20:40;10.10;99.90
21259;DHT22;10787;53.364;-1.480;2024-03-22T09:23:25;10.10;99.90
21259;DHT22;10787;53.364;-1.480;2024-03-22T09:26:09;10.00;99.90
21259;DHT22;10787;53.364;-1.480;2024-03-22T09:28:53;10.00;99.90
21259;DHT22;10787;53.364;-1.480;2024-03-22T09:31:37;9.90;99.90
21259;DHT22;10787;53.364;-1.480;2024-03-22T09:34:21;9.90;99.90
21259;DHT22;10787;53.364;-1.480;2024-03-22T09:37:06;9.90;99.90
21259;DHT22;10787;53.364;-1.480;2024-03-22T09:39:50;9.90;99.90
21259;DHT22;10787;53.364;-1.480;2024-03-22T09:42:37;10.00;99.90
21259;DHT22;10787;53.364;-1.480;2024-03-22T09:45:23;10.10;99.90
21259;DHT22;10787;53.364;-1.480;2024-03-22T09:48:08;10.30;99.90
21259;DHT22;10787;53.364;-1.480;2024-03-22T09:50:52;10.40;99.90
21259;DHT22;10787;53.364;-1.480;2024-03-22T09:53:37;10.40;99.90
21259;DHT22;10787;53.364;-1.480;2024-03-22T09:56:23;10.50;99.90
21259;DHT22;10787;53.364;-1.480;2024-03-22T09:59:09;10.60;99.90
21259;DHT22;10787;53.364;-1.480;2024-03-22T10:01:54;10.60;99.90
21259;DHT22;10787;53.364;-1.480;2024-03-22T10:04:43;10.70;99.90
21259;DHT22;10787;53.364;-1.480;2024-03-22T10:07:27;10.80;99.90
21259;DHT22;10787;53.364;-1.480;2024-03-22T10:10:12;10.70;99.90
21259;DHT22;10787;53.364;-1.480;2024-03-22T10:13:00;10.70;99.90
21259;DHT22;10787;53.364;-1.480;2024-03-22T10:15:46;10.70;99.90
21259;DHT22;10787;53.364;-1.480;2024-03-22T10:18:32;10.80;99.90
21259;DHT22;10787;53.364;-1.480;2024-03-22T10:21:18;10.80;99.90
21259;DHT22;10787;53.364;-1.480;2024-03-22T10:24:03;10.90;99.90
21259;DHT22;10787;53.364;-1.480;2024-03-22T10:26:47;11.00;99.90
21259;DHT22;10787;53.364;-1.480;2024-03-22T10:29:33;11.00;99.90
21259;DHT22;10787;53.364;-1.480;2024-03-22T10:32:17;10.90;99.90
21259;DHT22;10787;53.364;-1.480;2024-03-22T10:35:03;11.00;99.90
21259;DHT22;10787;53.364;-1.480;2024-03-22T10:37:51;11.10;99.90
21259;DHT22;10787;53.364;-1.480;2024-03-22T10:40:37;11.20;99.90
21259;DHT22;10787;53.364;-1.480;2024-03-22T10:43:21;11.40;99.90
21259;DHT22;10787;53.364;-1.480;2024-03-22T10:46:06;11.60;99.90
21259;DHT22;10787;53.364;-1.480;2024-03-22T10:48:52;11.60;99.90
21259;DHT22;10787;53.364;-1.480;2024-03-22T10:51:38;11.60;99.90
21259;DHT22;10787;53.364;-1.480;2024-03-22T10:54:37;11.60;99.90
21259;DHT22;10787;53.364;-1.480;2024-03-22T10:57:23;11.70;99.90
21259;DHT22;10787;53.364;-1.480;2024-03-22T11:00:11;11.70;99.90
21259;DHT22;10787;53.364;-1.480;2024-03-22T11:02:56;11.70;99.90
21259;DHT22;10787;53.364;-1.480;2024-03-22T11:05:47;11.70;99.90
21259;DHT22;10787;53.364;-1.480;2024-03-22T11:08:32;11.80;99.90
21259;DHT22;10787;53.364;-1.480;2024-03-22T11:11:18;11.90;99.90
21259;DHT22;10787;53.364;-1.480;2024-03-22T11:14:05;12.10;99.90
21259;DHT22;10787;53.364;-1.480;2024-03-22T11:16:52;12.40;99.90
21259;DHT22;10787;53.364;-1.480;2024-03-22T11:19:37;12.50;99.90
21259;DHT22;10787;53.364;-1.480;2024-03-22T11:22:22;12.60;99.90
21259;DHT22;10787;53.364;-1.480;2024-03-22T11:25:09;12.60;99.90
21259;DHT22;10787;53.364;-1.480;2024-03-22T11:27:56;12.80;99.90
21259;DHT22;10787;53.364;-1.480;2024-03-22T11:30:42;12.80;99.90
21259;DHT22;10787;53.364;-1.480;2024-03-22T11:33:26;12.90;99.90
21259;DHT22;10787;53.364;-1.480;2024-03-22T11:36:11;12.90;99.90
21259;DHT22;10787;53.364;-1.480;2024-03-22T11:38:55;12.80;99.90
21259;DHT22;10787;53.364;-1.480;2024-03-22T11:41:39;12.70;99.90
21259;DHT22;10787;53.364;-1.480;2024-03-22T11:44:24;12.40;99.90
21259;DHT22;10787;53.364;-1.480;2024-03-22T11:47:10;12.20;99.90
21259;DHT22;10787;53.364;-1.480;2024-03-22T11:49:55;12.20;99.90
21259;DHT22;10787;53.364;-1.480;2024-03-22T11:52:43;12.50;99.90
21259;DHT22;10787;53.364;-1.480;2024-03-22T11:55:27;12.70;99.90
21259;DHT22;10787;53.364;-1.480;2024-03-22T11:58:12;13.40;99.90
21259;DHT22;10787;53.364;-1.480;2024-03-22T12:00:57;14.40;99.90
21259;DHT22;10787;53.364;-1.480;2024-03-22T12:03:45;14.50;99.90
21259;DHT22;10787;53.364;-1.480;2024-03-22T12:06:30;14.30;99.90
21259;DHT22;10787;53.364;-1.480;2024-03-22T12:09:15;14.00;99.90
21259;DHT22;10787;53.364;-1.480;2024-03-22T12:11:59;13.50;99.90
21259;DHT22;10787;53.364;-1.480;2024-03-22T12:14:43;13.50;99.90
21259;DHT22;10787;53.364;-1.480;2024-03-22T12:17:27;12.90;99.90
21259;DHT22;10787;53.364;-1.480;2024-03-22T12:20:11;12.80;99.90
21259;DHT22;10787;53.364;-1.480;2024-03-22T12:22:56;12.80;99.90
21259;DHT22;10787;53.364;-1.480;2024-03-22T12:25:40;13.00;99.90
21259;DHT22;10787;53.364;-1.480;2024-03-22T12:28:24;13.00;99.90
21259;DHT22;10787;53.364;-1.480;2024-03-22T12:31:09;13.00;99.90
21259;DHT22;10787;53.364;-1.480;2024-03-22T12:33:56;13.40;99.90
21259;DHT22;10787;53.364;-1.480;2024-03-22T12:36:40;13.40;99.90
21259;DHT22;10787;53.364;-1.480;2024-03-22T12:39:24;14.60;99.90
21259;DHT22;10787;53.364;-1.480;2024-03-22T12:42:09;15.40;1.00
21259;DHT22;10787;53.364;-1.480;2024-03-22T12:44:52;15.40;1.00
21259;DHT22;10787;53.364;-1.480;2024-03-22T12:47:36;14.50;1.00
21259;DHT22;10787;53.364;-1.480;2024-03-22T12:50:22;13.80;1.00
21259;DHT22;10787;53.364;-1.480;2024-03-22T12:53:06;13.20;1.00
21259;DHT22;10787;53.364;-1.480;2024-03-22T12:55:51;12.60;1.00
21259;DHT22;10787;53.364;-1.480;2024-03-22T12:58:35;12.40;1.00
21259;DHT22;10787;53.364;-1.480;2024-03-22T13:01:20;12.30;1.00
21259;DHT22;10787;53.364;-1.480;2024-03-22T13:04:04;12.30;1.00
21259;DHT22;10787;53.364;-1.480;2024-03-22T13:06:48;12.10;1.00
21259;DHT22;10787;53.364;-1.480;2024-03-22T13:09:33;12.00;1.00
21259;DHT22;10787;53.364;-1.480;2024-03-22T13:12:17;11.50;1.00
21259;DHT22;10787;53.364;-1.480;2024-03-22T13:15:03;11.80;1.00
21259;DHT22;10787;53.364;-1.480;2024-03-22T13:17:47;12.60;1.00
21259;DHT22;10787;53.364;-1.480;2024-03-22T13:20:34;13.20;1.00
21259;DHT22;10787;53.364;-1.480;2024-03-22T13:23:19;13.20;1.00
21259;DHT22;10787;53.364;-1.480;2024-03-22T13:26:04;13.60;1.00
21259;DHT22;10787;53.364;-1.480;2024-03-22T13:28:48;14.50;1.00
21259;DHT22;10787;53.364;-1.480;2024-03-22T13:31:35;15.10;1.00
21259;DHT22;10787;53.364;-1.480;2024-03-22T13:34:20;15.10;1.00
21259;DHT22;10787;53.364;-1.480;2024-03-22T13:37:04;14.60;1.00
21259;DHT22;10787;53.364;-1.480;2024-03-22T13:39:49;14.40;1.00
21259;DHT22;10787;53.364;-1.480;2024-03-22T13:42:33;15.20;1.00
21259;DHT22;10787;53.364;-1.480;2024-03-22T13:45:17;16.00;1.00
21259;DHT22;10787;53.364;-1.480;2024-03-22T13:48:10;16.70;1.00
21259;DHT22;10787;53.364;-1.480;2024-03-22T13:50:55;17.00;1.00
21259;DHT22;10787;53.364;-1.480;2024-03-22T13:53:39;17.30;1.00
21259;DHT22;10787;53.364;-1.480;2024-03-22T13:56:26;18.20;1.00
21259;DHT22;10787;53.364;-1.480;2024-03-22T13:59:10;19.30;1.00
21259;DHT22;10787;53.364;-1.480;2024-03-22T14:01:57;19.80;1.00
21259;DHT22;10787;53.364;-1.480;2024-03-22T14:04:42;20.40;1.00
21259;DHT22;10787;53.364;-1.480;2024-03-22T14:07:26;19.80;1.00
21259;DHT22;10787;53.364;-1.480;2024-03-22T14:10:11;19.80;1.00
21259;DHT22;10787;53.364;-1.480;2024-03-22T14:13:01;20.30;1.00
21259;DHT22;10787;53.364;-1.480;2024-03-22T14:15:45;19.10;1.00
21259;DHT22;10787;53.364;-1.480;2024-03-22T14:18:29;18.80;1.00
21259;DHT22;10787;53.364;-1.480;2024-03-22T14:21:13;17.90;1.00
21259;DHT22;10787;53.364;-1.480;2024-03-22T14:24:02;17.10;1.00
21259;DHT22;10787;53.364;-1.480;2024-03-22T14:26:47;17.10;1.00
21259;DHT22;10787;53.364;-1.480;2024-03-22T14:29:31;17.20;1.00
21259;DHT22;10787;53.364;-1.480;2024-03-22T14:32:16;17.50;1.00
21259;DHT22;10787;53.364;-1.480;2024-03-22T14:35:00;19.20;1.00
21259;DHT22;10787;53.364;-1.480;2024-03-22T14:37:44;20.00;1.00
21259;DHT22;10787;53.364;-1.480;2024-03-22T14:40:28;19.60;1.00
21259;DHT22;10787;53.364;-1.480;2024-03-22T14:43:15;19.60;1.00
21259;DHT22;10787;53.364;-1.480;2024-03-22T14:45:59;18.10;1.00
21259;DHT22;10787;53.364;-1.480;2024-03-22T14:48:43;16.80;1.00
21259;DHT22;10787;53.364;-1.480;2024-03-22T14:51:27;16.00;1.00
21259;DHT22;10787;53.364;-1.480;2024-03-22T14:54:11;15.30;1.00
21259;DHT22;10787;53.364;-1.480;2024-03-22T14:56:56;15.00;1.00
21259;DHT22;10787;53.364;-1.480;2024-03-22T14:59:39;16.60;1.00
21259;DHT22;10787;53.364;-1.480;2024-03-22T15:02:24;18.30;1.00
21259;DHT22;10787;53.364;-1.480;2024-03-22T15:05:08;17.90;1.00
21259;DHT22;10787;53.364;-1.480;2024-03-22T15:07:52;17.70;1.00
21259;DHT22;10787;53.364;-1.480;2024-03-22T15:10:37;17.20;1.00
21259;DHT22;10787;53.364;-1.480;2024-03-22T15:13:22;18.10;1.00
21259;DHT22;10787;53.364;-1.480;2024-03-22T15:16:06;18.90;1.00
21259;DHT22;10787;53.364;-1.480;2024-03-22T15:18:50;18.60;1.00
21259;DHT22;10787;53.364;-1.480;2024-03-22T15:21:35;16.70;1.00
21259;DHT22;10787;53.364;-1.480;2024-03-22T15:24:20;16.40;1.00
21259;DHT22;10787;53.364;-1.480;2024-03-22T15:27:04;16.00;1.00
21259;DHT22;10787;53.364;-1.480;2024-03-22T15:29:48;16.00;1.00
21259;DHT22;10787;53.364;-1.480;2024-03-22T15:32:36;15.80;1.00
21259;DHT22;10787;53.364;-1.480;2024-03-22T15:35:20;16.20;1.00
21259;DHT22;10787;53.364;-1.480;2024-03-22T15:38:04;16.70;1.00
21259;DHT22;10787;53.364;-1.480;2024-03-22T15:40:48;16.10;1.00
21259;DHT22;10787;53.364;-1.480;2024-03-22T15:43:33;15.20;1.00
21259;DHT22;10787;53.364;-1.480;2024-03-22T15:46:18;15.20;1.00
21259;DHT22;10787;53.364;-1.480;2024-03-22T15:49:03;15.80;1.00
21259;DHT22;10787;53.364;-1.480;2024-03-22T15:51:47;15.90;1.00
21259;DHT22;10787;53.364;-1.480;2024-03-22T15:54:31;15.70;1.00
21259;DHT22;10787;53.364;-1.480;2024-03-22T15:57:16;15.00;1.00
21259;DHT22;10787;53.364;-1.480;2024-03-22T16:00:00;14.20;1.00
21259;DHT22;10787;53.364;-1.480;2024-03-22T16:02:44;14.00;1.00
21259;DHT22;10787;53.364;-1.480;2024-03-22T16:05:29;15.10;1.00
21259;DHT22;10787;53.364;-1.480;2024-03-22T16:08:14;16.10;1.00
21259;DHT22;10787;53.364;-1.480;2024-03-22T16:10:58;15.80;1.00
21259;DHT22;10787;53.364;-1.480;2024-03-22T16:13:42;15.30;1.00
21259;DHT22;10787;53.364;-1.480;2024-03-22T16:16:26;14.80;1.00
21259;DHT22;10787;53.364;-1.480;2024-03-22T16:19:10;14.40;1.00
21259;DHT22;10787;53.364;-1.480;2024-03-22T16:21:54;14.10;1.00
21259;DHT22;10787;53.364;-1.480;2024-03-22T16:24:38;13.50;1.00
21259;DHT22;10787;53.364;-1.480;2024-03-22T16:27:23;13.30;1.00
21259;DHT22;10787;53.364;-1.480;2024-03-22T16:30:07;12.90;1.00
21259;DHT22;10787;53.364;-1.480;2024-03-22T16:32:51;12.10;1.00
21259;DHT22;10787;53.364;-1.480;2024-03-22T16:35:36;11.80;1.00
21259;DHT22;10787;53.364;-1.480;2024-03-22T16:38:20;11.70;1.00
21259;DHT22;10787;53.364;-1.480;2024-03-22T16:41:04;11.50;1.00
21259;DHT22;10787;53.364;-1.480;2024-03-22T16:43:51;11.30;1.00
21259;DHT22;10787;53.364;-1.480;2024-03-22T16:46:36;11.20;1.00
21259;DHT22;10787;53.364;-1.480;2024-03-22T16:49:20;11.60;1.00
21259;DHT22;10787;53.364;-1.480;2024-03-22T16:52:04;12.50;1.00
21259;DHT22;10787;53.364;-1.480;2024-03-22T16:54:48;13.50;1.00
21259;DHT22;10787;53.364;-1.480;2024-03-22T16:57:35;13.70;1.00
21259;DHT22;10787;53.364;-1.480;2024-03-22T17:00:20;13.90;1.00
21259;DHT22;10787;53.364;-1.480;2024-03-22T17:03:04;13.70;1.00
21259;DHT22;10787;53.364;-1.480;2024-03-22T17:05:48;13.50;1.00
21259;DHT22;10787;53.364;-1.480;2024-03-22T17:08:32;13.20;1.00
21259;DHT22;10787;53.364;-1.480;2024-03-22T17:11:17;13.00;1.00
21259;DHT22;10787;53.364;-1.480;2024-03-22T17:14:02;12.40;1.00